ראשי / חיפושים אחרונים

חיפושים אחרונים

לוחית
סוג רכב
דגם
שנה
תאריך חיפוש
שעת חיפוש
36420003 בי ווי די סין ATTO 3 2023 30/08/2026 11:54:27
6537679 קיה קוריאה הדרומית RI0 2013 30/08/2026 11:54:26
14477404 טסלה גרמניה MODEL Y 2024 30/08/2026 11:54:25
2820111 יונדאי קוריאה הדרומית I35 2013 30/08/2026 11:54:23
2230338 אאודי סלובקיה Q7 2016 30/08/2026 11:54:22
44856301 טויוטה טורקיה VERSO 2018 30/08/2026 11:54:22
54630201 יונדאי טורקיה I10 2019 30/08/2026 11:54:21
7687950 טויוטה טורקיה COROLLA 2003 30/08/2026 11:54:21
70907502 טויוטה טורקיה C-HR HYBRID 2021 30/08/2026 11:54:19
4861754 אאודי בלגיה A1 2015 30/08/2026 11:54:17
8029064 יונדאי קוריאה הדרומית I30 2008 30/08/2026 11:54:16
82969201 ניסאן יפן X-TRAIL 2019 30/08/2026 11:54:14
1129034 מרצדס הונגריה CLA180 2015 30/08/2026 11:54:12
39364801 מאן פולין - 2020 30/08/2026 11:54:12
15968902 טויוטה טורקיה C-HR HYBRID 2020 30/08/2026 11:54:11
39496403 מזדה יפן MAZDA CX-5 2023 30/08/2026 11:54:11
3828238 פולקסווגן גרמניה GOLF 2016 30/08/2026 11:54:10
4225157 פיג'ו צרפת 206 2005 30/08/2026 11:54:08
63332701 סקודה צ'כיה SUPERB 2019 30/08/2026 11:54:08
58228702 אקסס טיוואן - 2021 30/08/2026 11:54:07
3806779 רנו טורקיה FLUENCE 2012 30/08/2026 11:54:06
1219271 סיאט ספרד IBIZA 2010 30/08/2026 11:54:06
53897803 יונדאי קוריאה הדרומית VENUE 2023 30/08/2026 11:54:05
2863874 טויוטה טורקיה AURIS 2011 30/08/2026 11:54:03
9617232 שברולט קוריאה הדרומית TRAX 2015 30/08/2026 11:54:03
5303351 פורד ספרד FOCUS 2004 30/08/2026 11:54:01
74532601 אאודי סלובקיה Q7 2019 30/08/2026 11:54:00
71127704 לינק אנד קו סין LYNKCO 02 2026 30/08/2026 11:54:00
28484204 פולקסווגן פולי - 2026 30/08/2026 11:53:59
49340701 סקודה צ'כיה FABIA SPACE 2018 30/08/2026 11:53:57
49340701 סקודה צ'כיה FABIA SPACE 2018 30/08/2026 11:53:56
6500232 אלפא רומיאו איטליה ALFA GIULIETTA 2014 30/08/2026 11:53:56
9215478 אוטוטק פז ווים - 2015 30/08/2026 11:53:55
5928474 מ.ג סין MG 550 2011 30/08/2026 11:53:55
62906901 סיאט ספרד ARONA 2019 30/08/2026 11:53:54
2839071 מזדה יפן MAZDA 3 2010 30/08/2026 11:53:53
1342767 פיאט פולין FIAT 500 1.2 2010 30/08/2026 11:53:51
20111001 ניסאן בריטניה QASHQAI 2018 30/08/2026 11:53:48
93248101 מרצדס בנץ גרמנ - 2023 30/08/2026 11:53:48
8246937 רנו צרפת GRAND SCENIC 2016 30/08/2026 11:53:46
89738301 טויוטה טורקיה COROLLA HSD SDN 2019 30/08/2026 11:53:43
1096472 קיה קוריאה הדרומית MAGENTIS 2009 30/08/2026 11:53:41
9180050 מזדה ארהב" TRIBUTE 2002 30/08/2026 11:53:41
32082703 צ'רי סין TIGGO 8 PRO 2023 30/08/2026 11:53:40
2893479 ניסאן בריטניה JUKE 2012 30/08/2026 11:53:40
82954902 טויוטה תאילנד HILUX 2022 30/08/2026 11:53:39
9730668 מרצדס בנץ ארהב - 2008 30/08/2026 11:53:39
6380338 הארלי דיוידסון - 2016 30/08/2026 11:53:37
66139303 סובארו יפן CROSSTREK 2024 30/08/2026 11:53:36
8321838 קיה סלובקיה SPORTAGE 2016 30/08/2026 11:53:33
6958512 ניסאן בריטניה JUKE 2013 30/08/2026 11:53:31
40117402 מרצדס ארהב" GLE63S AMG 4MAT 2021 30/08/2026 11:53:29
9455834 לקסוס יפן LEXUS NX200T 2015 30/08/2026 11:53:27
49340701 סקודה צ'כיה FABIA SPACE 2018 30/08/2026 11:53:27
9081274 פרארי - 2013 30/08/2026 11:53:25
2848462 דייהטסו יפן .SIRION 2007 30/08/2026 11:53:24
64010102 סקודה צ'כיה KAMIQ 2021 30/08/2026 11:53:23
36420003 בי ווי די סין ATTO 3 2023 30/08/2026 11:53:23
1740561 מזדה יפן MAZDA 6 2007 30/08/2026 11:53:22
2230338 אאודי סלובקיה Q7 2016 30/08/2026 11:53:20
8950871 טויוטה יפן COROLLA 2010 30/08/2026 11:53:16
25901001 סיאט ספרד LEON 2017 30/08/2026 11:53:13
36420004 ג'אקו סין JAECOO7 PHEV 2025 30/08/2026 11:53:12
81929702 קיה קוריאה הדרומית PICANTO 2022 30/08/2026 11:53:11
8642538 קיה סלובקיה SPORTAGE 2016 30/08/2026 11:53:11
68158303 קיה קוריאה הדרומית SORENTO 2024 30/08/2026 11:53:11
83089302 רנו טורקיה CLIO 2022 30/08/2026 11:53:10
15390503 מזדה יפן MAZDA 6 2022 30/08/2026 11:53:10
1025667 פיאט טורקיה DOBLO 2008 30/08/2026 11:53:09
1511365 הונדה יפן ACCORD 2008 30/08/2026 11:53:06
6694653 פולקסווגן גרמניה T5 2014 30/08/2026 11:53:06
77958003 יונדאי קוריאה הדרומית KONA HYBRID 2024 30/08/2026 11:53:05
88783502 לנדרובר בריטניה R.ROVER EVOQUE 2022 30/08/2026 11:53:05
5534673 סיאט ספרד LEON 2011 30/08/2026 11:53:04
15688001 יונדאי קוריאה הדרומית IONIQ HYBRID 2017 30/08/2026 11:53:02
28484204 פולקסווגן פולי - 2026 30/08/2026 11:52:57
8202173 מיצובישי יפן LANCER 2011 30/08/2026 11:52:55
76599003 אקספנג סין P7I 2024 30/08/2026 11:52:53
46275604 דונגפנג סין BOX 2025 30/08/2026 11:52:52
1009311 יונדאי קוריאה הדרומית IX35 2012 30/08/2026 11:52:51
5534673 סיאט ספרד LEON 2011 30/08/2026 11:52:47
49383301 פולקסווגן גרמניה TIGUAN 2018 30/08/2026 11:52:41
29456302 סיאט ספרד IBIZA 2020 30/08/2026 11:52:41
1041232 יונדאי קוריאה הדרומית I35 2014 30/08/2026 11:52:41
12968002 ימהה אינדונזיה - 2020 30/08/2026 11:52:40
44568601 טויוטה טורקיה COROLLA 2018 30/08/2026 11:52:38
3388738 פולקסווגן גרמניה T6 2016 30/08/2026 11:52:38
6419426 רנו טורקיה MEGANE 2021 30/08/2026 11:52:36
3752139 שברולט קוריאה הדרומית SPARK 2016 30/08/2026 11:52:36
88783502 לנדרובר בריטניה R.ROVER EVOQUE 2022 30/08/2026 11:52:35
9961333 מיצובישי יפן LANCER SPORTBAC 2015 30/08/2026 11:52:30
82909402 טויוטה צרפת YARIS HYBRID 2022 30/08/2026 11:52:28
28484204 פולקסווגן פולי - 2026 30/08/2026 11:52:26
51064104 סטארק ספרד - 2026 30/08/2026 11:52:26
3406854 סיאט ספרד IBIZA 2015 30/08/2026 11:52:25
75020101 סוזוקי יפן SWIFT 2019 30/08/2026 11:52:20
1740561 מזדה יפן MAZDA 6 2007 30/08/2026 11:52:19
67957101 רנו ספרד CAPTUR 2019 30/08/2026 11:52:15
92658301 למבורגיני איטל - 2021 30/08/2026 11:52:14
4321978 הונדה טורקיה CIVIC 2012 30/08/2026 11:52:13
9777575 טויוטה יפן - 2002 30/08/2026 11:52:11
14461002 קואנג יאנג טיו - 2021 30/08/2026 11:52:10
46711602 מרצדס בנץ גרמנ - 2021 30/08/2026 11:52:07
61446102 בוקמן גרמניה - 2021 30/08/2026 11:52:05
1611376 פורד גרמניה FOCUS 2013 30/08/2026 11:52:05
7420612 רנו ספרד MEGANE 2013 30/08/2026 11:52:00
1224636 אם.בי.קיי אנגל - 2002 30/08/2026 11:51:55
4161838 סקודה צ'כיה RAPID 2016 30/08/2026 11:51:55
2065772 דייהטסו יפן SIRION 2010 30/08/2026 11:51:51
3385854 אאודי בלגיה A1 2015 30/08/2026 11:51:50
6694653 פולקסווגן גרמניה T5 2014 30/08/2026 11:51:50
1740561 מזדה יפן MAZDA 6 2007 30/08/2026 11:51:48
80877002 שברולט ארהב" - 2022 30/08/2026 11:51:45
64447903 קיה קוריאה הדרומית SELTOS 2024 30/08/2026 11:51:45
2825674 טויוטה יפן COROLLA 2011 30/08/2026 11:51:40
4225856 פולקסווגן ספרד POLO 2004 30/08/2026 11:51:40
1275968 קרייזלר ארהב" DODGE CALIBER 2009 30/08/2026 11:51:39
4183637 יונדאי קוריאה הדרומית I35 2016 30/08/2026 11:51:37
17761601 מרצדס גרמניה E350E 2018 30/08/2026 11:51:35
88783502 לנדרובר בריטניה R.ROVER EVOQUE 2022 30/08/2026 11:51:34
6540573 סקודה צ'כיה FABIA 2011 30/08/2026 11:51:32
21918601 ניסאן יפן X-TRAIL 2018 30/08/2026 11:51:31
8890511 מזדה יפן MAZDA 3 2014 30/08/2026 11:51:30
31896404 ג'אקו סין JAECOO7 2025 30/08/2026 11:51:29
6311110 טויוטה יפן MR 2 2001 30/08/2026 11:51:28
1740561 מזדה יפן MAZDA 6 2007 30/08/2026 11:51:28
20320304 לינק אנד קו סין LYNKCO 02 2025 30/08/2026 11:51:25
7735454 מזדה יפן MAZDA 3 2015 30/08/2026 11:51:20
74394003 טויוטה יפן RAV4 HYBRID 2024 30/08/2026 11:51:17
51004604 מרצדס גרמניה AMG CLE53 4M 2026 30/08/2026 11:51:15
8580132 אופל ספרד CORSA 2015 30/08/2026 11:51:10
75870902 אאודי בלגיה ETRON SPORTBACK 2022 30/08/2026 11:51:10
2825674 טויוטה יפן COROLLA 2011 30/08/2026 11:51:08
3000179 ניסאן בריטניה JUKE 2012 30/08/2026 11:51:08
4882435 טויוטה יפן YARIS 2002 30/08/2026 11:51:07
3977132 טויוטה בריטניה AURIS 2015 30/08/2026 11:51:06
45276901 טויוטה טורקיה C-HR HYBRID 2018 30/08/2026 11:51:06
6671385 קיה סלובקיה SPORTAGE 2017 30/08/2026 11:51:06
35852901 פיאט איטליה 500X 2017 30/08/2026 11:51:05
18584001 ניסאן בריטניה QASHQAI 2017 30/08/2026 11:51:04
16041902 טויוטה יפן LAND CRUISER 2020 30/08/2026 11:51:04
2538575 אופל ספרד CORSA 2012 30/08/2026 11:51:00
24229703 גילי סין GEOMETRY C 2022 30/08/2026 11:50:56
4205369 מזדה יפן MAZDA 3 2009 30/08/2026 11:50:55
4161838 סקודה צ'כיה RAPID 2016 30/08/2026 11:50:53
1037384 דאצ'יה רומניה DUSTER 2017 30/08/2026 11:50:51
1516231 מיצובישי יפן OUTLANDER 2014 30/08/2026 11:50:49
20571002 מיצובישי יפן OUTLANDER PHEV 2021 30/08/2026 11:50:41
88072802 מרצדס ארהב" GLE 350D 4MATIC 2022 30/08/2026 11:50:40
47785804 הונדה איטליה - 2025 30/08/2026 11:50:40
3977132 טויוטה בריטניה AURIS 2015 30/08/2026 11:50:39
2825674 טויוטה יפן COROLLA 2011 30/08/2026 11:50:39
63511201 מרצדס בנץ גרמנ - 2019 30/08/2026 11:50:38
2941207 סיאט ספרד - 1994 30/08/2026 11:50:32
7043155 יונדאי קוריאה הדרומית SONATA HYBRID 2017 30/08/2026 11:50:28
24229703 גילי סין GEOMETRY C 2022 30/08/2026 11:50:24
24229703 גילי סין GEOMETRY C 2022 30/08/2026 11:50:23
6671385 קיה סלובקיה SPORTAGE 2017 30/08/2026 11:50:20
24535902 סיאט צ'כיה ATECA 2020 30/08/2026 11:50:18
16041902 טויוטה יפן LAND CRUISER 2020 30/08/2026 11:50:17
66879301 פולקסווגן גרמניה TIGUAN 2019 30/08/2026 11:50:16
87720102 יונדאי קוריאה הדרומית IONIQ HYBRID 2022 30/08/2026 11:50:16
81142403 סקודה צ'כיה KAMIQ FL 2024 30/08/2026 11:50:14
9576952 סיאט ספרד LEON 2014 30/08/2026 11:50:10
55357004 מ.ג סין EHS 2026 30/08/2026 11:50:09
2390831 יונדאי טורקיה I10 2014 30/08/2026 11:50:08
31671503 וולבו שבדיה - 2023 30/08/2026 11:50:07
1281937 טויוטה טורקיה COROLLA 2016 30/08/2026 11:50:06
3783879 רנו טורקיה FLUENCE 2012 30/08/2026 11:50:05
1002939 מרצדס גרמניה S350D 2016 30/08/2026 11:50:04
4984452 רנו ספרד CAPTUR 2013 30/08/2026 11:50:03
20684902 קרייזלר ארהב" WRANGLER UNLIM 2020 30/08/2026 11:50:02
4966976 יונדאי הודו I10 2011 30/08/2026 11:50:01
3873611 יונדאי קוריאה הדרומית I35 2013 30/08/2026 11:49:56
9095118 אאודי הונגריה TT 2000 30/08/2026 11:49:55
24229703 גילי סין GEOMETRY C 2022 30/08/2026 11:49:54
6613438 קיה קוריאה הדרומית PICANTO 2016 30/08/2026 11:49:53
21370404 טויוטה צרפת YARIS CROSS HSD 2025 30/08/2026 11:49:51
5499654 סיאט ספרד LEON 2015 30/08/2026 11:49:50
92959301 ב מ וו גרמניה - 1997 30/08/2026 11:49:43
38527604 רולס-רויס בריטניה BLACK BADGE SPE 2026 30/08/2026 11:49:40
51064104 סטארק ספרד - 2026 30/08/2026 11:49:36
4304928 סוזוקי יפן BALENO 1997 30/08/2026 11:49:33
37439002 אאודי בלגיה ETRON 2021 30/08/2026 11:49:33
38527604 רולס-רויס בריטניה BLACK BADGE SPE 2026 30/08/2026 11:49:33
53231401 יונדאי קוריאה הדרומית IONIQ HYBRID 2018 30/08/2026 11:49:31
9541833 יונדאי קוריאה הדרומית I35 2015 30/08/2026 11:49:31
31478602 מ.ג סין EHS PHEV 2022 30/08/2026 11:49:31
42979402 טויוטה יפן LAND CRUISER 2021 30/08/2026 11:49:30
39994403 ב מ וו גרמניה X1 SDRIVE18I 2023 30/08/2026 11:49:27
7043155 יונדאי קוריאה הדרומית SONATA HYBRID 2017 30/08/2026 11:49:26
9576952 סיאט ספרד LEON 2014 30/08/2026 11:49:23
9576952 סיאט ספרד LEON 2014 30/08/2026 11:49:23
52792102 טויוטה בריטניה COROLLA TS HSD 2021 30/08/2026 11:49:22
5032468 הונדה טורקיה CIVIC 2009 30/08/2026 11:49:21
38527604 רולס-רויס בריטניה BLACK BADGE SPE 2026 30/08/2026 11:49:18
9033113 יונדאי צ'כיה I30 2012 30/08/2026 11:49:16
3793961 פולקסווגן גרמניה GOLF 2007 30/08/2026 11:49:11
30838903 טסלה סין MODEL 3 2022 30/08/2026 11:49:11
4301976 יונדאי הודו I10 2011 30/08/2026 11:49:11
וואטסאפ